createdAt,value
2018-06-21T00:04:51.431Z,2.65
2018-06-21T00:10:46.479Z,3.02
2018-06-21T00:16:41.489Z,2.61
2018-06-21T00:22:36.509Z,2.74
2018-06-21T00:28:31.553Z,3
2018-06-21T00:34:26.520Z,2.83
2018-06-21T00:40:21.512Z,2.58
2018-06-21T00:46:16.466Z,2.57
2018-06-21T00:52:11.481Z,2.68
2018-06-21T00:58:06.505Z,2.73
2018-06-21T01:04:01.509Z,2.97
2018-06-21T01:27:41.571Z,3.01
2018-06-21T01:27:41.624Z,3.09
2018-06-21T01:27:41.638Z,3.09
2018-06-21T01:27:41.661Z,3.09
2018-06-21T01:33:36.632Z,2.76
2018-06-21T01:39:31.539Z,3.13
2018-06-21T01:45:26.520Z,3.06
2018-06-21T01:51:21.467Z,3.06
2018-06-21T01:57:16.521Z,3.4
2018-06-21T02:03:11.483Z,3.2
2018-06-21T02:09:06.555Z,2.93
2018-06-21T02:15:01.530Z,3.16
2018-06-21T02:20:56.519Z,2.93
2018-06-21T02:26:51.551Z,2.88
2018-06-21T02:32:46.521Z,3.29
2018-06-21T02:38:41.488Z,3.61
2018-06-21T02:44:36.532Z,2.88
2018-06-21T02:50:31.530Z,2.82
2018-06-21T02:56:26.500Z,2.82
2018-06-21T03:02:21.501Z,2.77
2018-06-21T03:08:16.499Z,3.82
2018-06-21T03:14:11.521Z,3
2018-06-21T03:20:06.602Z,3.2
2018-06-21T03:26:01.547Z,3.17
2018-06-21T03:31:56.506Z,3.38
2018-06-21T03:37:51.591Z,3.64
2018-06-21T03:43:46.561Z,3.08
2018-06-21T03:49:41.542Z,3.2
2018-06-21T03:55:36.563Z,3.63
2018-06-21T04:01:31.532Z,3.67
2018-06-21T04:07:26.559Z,3.81
2018-06-21T04:31:06.597Z,4.89
2018-06-21T04:31:06.730Z,5.49
2018-06-21T04:31:06.744Z,5.49
2018-06-21T04:31:06.783Z,5.49
2018-06-21T04:37:01.561Z,5.1
2018-06-21T04:42:56.534Z,4.56
2018-06-21T04:48:51.547Z,3.84
2018-06-21T04:54:46.638Z,5.18
2018-06-21T05:00:41.578Z,4.37
2018-06-21T05:06:36.541Z,4.81
2018-06-21T05:12:31.580Z,5.94
2018-06-21T05:18:26.608Z,6.32
2018-06-21T05:24:21.556Z,5.81
2018-06-21T05:30:16.569Z,5.67
2018-06-21T05:36:11.542Z,4.79
2018-06-21T05:42:06.593Z,5.45
2018-06-21T05:48:01.584Z,4.28
2018-06-21T05:53:56.587Z,4.91
2018-06-21T05:59:51.646Z,4.55
2018-06-21T06:05:46.601Z,4.18
2018-06-21T06:11:41.600Z,4.49
2018-06-21T06:17:36.584Z,4.16
2018-06-21T06:23:31.558Z,4.6
2018-06-21T06:29:26.606Z,4.27
2018-06-21T06:35:21.620Z,4.79
2018-06-21T06:41:16.644Z,4.8
2018-06-21T06:47:11.625Z,4.61
2018-06-21T06:53:06.715Z,4.54
2018-06-21T06:59:01.644Z,4.41
2018-06-21T07:04:56.629Z,4.85
2018-06-21T07:28:36.629Z,4.67
2018-06-21T07:28:36.667Z,5.24
2018-06-21T07:28:36.676Z,5.24
2018-06-21T07:28:36.704Z,5.24
2018-06-21T07:34:31.589Z,5.51
2018-06-21T07:40:26.641Z,4.48
2018-06-21T07:46:21.597Z,5.18
2018-06-21T07:52:16.588Z,5.71
2018-06-21T07:58:11.669Z,5.06
2018-06-21T08:04:06.626Z,4.67
2018-06-21T08:10:01.799Z,4.59
2018-06-21T08:15:56.601Z,4.57
2018-06-21T08:21:51.636Z,4.67
2018-06-21T08:27:46.629Z,4.8
2018-06-21T08:33:41.732Z,3.81
2018-06-21T08:39:36.728Z,4.07
2018-06-21T08:45:31.623Z,3.54
2018-06-21T08:51:26.674Z,3.45
2018-06-21T08:57:21.699Z,3.73
2018-06-21T09:03:16.649Z,3.51
2018-06-21T09:09:11.641Z,3.32
2018-06-21T09:15:06.754Z,3.16
2018-06-21T09:21:01.723Z,3.87
2018-06-21T09:26:56.673Z,3.65
2018-06-21T09:32:51.630Z,3.7
2018-06-21T09:38:46.680Z,3.53
2018-06-21T09:44:41.687Z,3.82
2018-06-21T09:50:36.659Z,3.86
2018-06-21T09:56:31.631Z,3.64
2018-06-21T10:02:26.681Z,4.05
2018-06-21T10:08:21.670Z,4.24
2018-06-21T10:32:01.713Z,3.66
2018-06-21T10:32:01.725Z,3.34
2018-06-21T10:32:01.775Z,3.34
2018-06-21T10:32:01.811Z,3.34
2018-06-21T10:37:56.691Z,3.12
2018-06-21T10:43:51.700Z,2.77
2018-06-21T10:49:46.689Z,3.44
2018-06-21T10:55:41.689Z,3.27
2018-06-21T11:01:36.665Z,3
2018-06-21T11:07:31.723Z,2.96
2018-06-21T11:13:26.714Z,3.08
2018-06-21T11:19:21.723Z,3.17
2018-06-21T11:25:16.717Z,3.22
2018-06-21T11:31:11.727Z,3.91
2018-06-21T11:37:06.727Z,3.38
2018-06-21T11:43:01.691Z,3.89
2018-06-21T11:48:56.763Z,3.53
2018-06-21T11:54:51.775Z,3.38
2018-06-21T12:00:46.745Z,3.73
2018-06-21T12:06:41.742Z,3.32
2018-06-21T12:12:36.691Z,3.67
2018-06-21T12:18:31.700Z,4.27
2018-06-21T12:24:26.749Z,4.13
2018-06-21T12:30:21.723Z,4.06
2018-06-21T12:36:16.742Z,4.2
2018-06-21T12:42:11.756Z,3.53
2018-06-21T12:48:06.804Z,3.92
2018-06-21T12:54:01.744Z,3.88
2018-06-21T12:59:56.792Z,4.1
2018-06-21T13:05:51.806Z,3.61
2018-06-21T13:29:31.772Z,3.8
2018-06-21T13:29:31.844Z,2.93
2018-06-21T13:29:31.853Z,2.93
2018-06-21T13:29:31.889Z,2.93
2018-06-21T13:35:26.750Z,2.82
2018-06-21T13:41:21.765Z,3.04
2018-06-21T13:47:16.758Z,2.95
2018-06-21T13:53:11.740Z,2.87
2018-06-21T13:59:06.781Z,2.82
2018-06-21T14:05:01.868Z,3.02
2018-06-21T14:10:56.754Z,2.7
2018-06-21T14:16:51.771Z,3.07
2018-06-21T14:22:46.789Z,2.68
2018-06-21T14:28:41.834Z,2.65
2018-06-21T14:34:36.773Z,2.8
2018-06-21T14:40:31.811Z,3.12
2018-06-21T14:46:26.814Z,3.2
2018-06-21T14:52:21.757Z,3.17
2018-06-21T14:58:16.878Z,2.94
2018-06-21T15:04:11.890Z,2.91
2018-06-21T15:10:06.817Z,2.83
2018-06-21T15:16:01.858Z,3.18
2018-06-21T15:21:56.812Z,3.29
2018-06-21T15:27:53.099Z,3.4
2018-06-21T15:33:46.848Z,3.3
2018-06-21T15:39:41.845Z,3.63
2018-06-21T15:45:36.900Z,3.13
2018-06-21T15:51:31.940Z,3.51
2018-06-21T15:57:26.892Z,3.13
2018-06-21T16:03:21.851Z,3.27
2018-06-21T16:09:16.868Z,2.88
2018-06-21T16:32:56.837Z,3.47
2018-06-21T16:32:56.939Z,3.09
2018-06-21T16:32:56.948Z,3.09
2018-06-21T16:32:57.048Z,3.09
2018-06-21T16:38:51.832Z,2.99
2018-06-21T16:44:46.824Z,2.7
2018-06-21T16:50:41.904Z,2.77
2018-06-21T16:56:36.951Z,2.38
2018-06-21T17:02:31.862Z,2.76
2018-06-21T17:08:26.910Z,2.89
2018-06-21T17:14:21.823Z,2.65
2018-06-21T17:20:16.844Z,2.7
2018-06-21T17:26:11.889Z,2.51
2018-06-21T17:32:06.889Z,2.87
2018-06-21T17:38:01.875Z,3.07
2018-06-21T17:43:56.853Z,3.16
2018-06-21T17:49:51.870Z,3.22
2018-06-21T17:55:46.897Z,3.82
2018-06-21T18:01:41.890Z,3.05
2018-06-21T18:07:36.915Z,2.87
2018-06-21T18:13:31.869Z,2.94
2018-06-21T18:19:26.957Z,3.1
2018-06-21T18:25:21.862Z,3.09
2018-06-21T18:31:16.964Z,2.85
2018-06-21T18:37:11.857Z,2.98
2018-06-21T18:43:06.868Z,3.11
2018-06-21T18:49:02.003Z,3.23
2018-06-21T18:54:56.890Z,2.74
2018-06-21T19:00:51.935Z,3
2018-06-21T19:06:46.863Z,3.22
2018-06-21T19:30:26.903Z,3.1
2018-06-21T19:30:26.995Z,3.21
2018-06-21T19:30:27.009Z,3.17
2018-06-21T19:30:27.017Z,3.17
2018-06-21T19:36:21.957Z,3.43
2018-06-21T19:42:16.984Z,4.23
2018-06-21T19:48:11.951Z,3.51
2018-06-21T19:54:07.001Z,3.58
2018-06-21T20:00:02.215Z,3.63
2018-06-21T20:05:56.947Z,3.78
2018-06-21T20:11:52.023Z,3.66
2018-06-21T20:17:46.942Z,3.73
2018-06-21T20:23:41.915Z,3.68
2018-06-21T20:29:36.983Z,4.36
2018-06-21T20:35:31.935Z,3.63
2018-06-21T20:41:26.986Z,4.26
2018-06-21T20:47:21.944Z,4.37
2018-06-21T20:53:16.913Z,4.1
2018-06-21T20:59:11.961Z,4.33
2018-06-21T21:05:06.950Z,4.01
2018-06-21T21:11:01.960Z,4.14
2018-06-21T21:16:56.960Z,4.65
2018-06-21T21:22:52.098Z,4.37
2018-06-21T21:28:46.994Z,4.3
2018-06-21T21:34:41.990Z,4.86
2018-06-21T21:40:36.992Z,4.43
2018-06-21T21:46:31.921Z,4.67
2018-06-21T21:52:27.024Z,4.94
2018-06-21T21:58:22.029Z,5.02
2018-06-21T22:04:16.939Z,5.31
2018-06-21T22:10:11.940Z,5.44
2018-06-21T22:33:51.982Z,5.01
2018-06-21T22:33:52.196Z,4.77
2018-06-21T22:33:52.199Z,4.77
2018-06-21T22:33:52.225Z,4.77
2018-06-21T22:39:46.967Z,5.52
2018-06-21T22:45:41.974Z,5.38
2018-06-21T22:51:36.995Z,4.86
2018-06-21T22:57:32.009Z,5.27
2018-06-21T23:03:27.025Z,4.81
2018-06-21T23:09:21.983Z,4.3
2018-06-21T23:15:17.055Z,4.85
2018-06-21T23:21:11.973Z,5.1
2018-06-21T23:27:07.039Z,4.99
2018-06-21T23:33:02.014Z,5.38
2018-06-21T23:38:57.019Z,4.94
2018-06-21T23:44:52.034Z,4.78
2018-06-21T23:50:47.037Z,5.24
2018-06-21T23:56:42.004Z,5.28
